Time;durP1;ratioP1;P1;durP2;ratioP2;P2;SDS_P1;SDS_P2;PMS_P1;PMS_P2;Temp;Humidity;BMP_temperature;BMP_pressure;BME280_temperature;BME280_humidity;BME280_pressure;Samples;Min_cycle;Max_cycle;Signal;HPM_P1;HPM_P2
2022/12/20 00:02:04;;;;;;;9.07;5.28;;;9.40;93.30;;;;;;5057214;28;20040;-73
2022/12/20 00:04:29;;;;;;;9.75;7.10;;;9.40;93.20;;;;;;5073902;28;20051;-74
2022/12/20 00:06:55;;;;;;;32.28;17.98;;;9.40;93.00;;;;;;5073816;28;20481;-75
2022/12/20 00:09:21;;;;;;;17.30;9.02;;;9.50;93.00;;;;;;5073379;28;20069;-74
2022/12/20 00:11:46;;;;;;;15.35;9.27;;;9.40;92.90;;;;;;5073682;28;20404;-74
2022/12/20 00:14:12;;;;;;;16.88;11.38;;;9.40;92.90;;;;;;5073492;28;20409;-75
2022/12/20 00:16:38;;;;;;;16.02;11.07;;;9.40;92.90;;;;;;5073743;28;20044;-75
2022/12/20 00:19:05;;;;;;;11.15;8.00;;;9.40;92.90;;;;;;5073285;28;20047;-76
2022/12/20 00:21:33;;;;;;;15.63;9.82;;;9.40;92.70;;;;;;5073232;28;20070;-76
2022/12/20 00:23:59;;;;;;;14.90;10.73;;;9.40;92.70;;;;;;5073298;28;20052;-76
2022/12/20 00:26:28;;;;;;;13.48;8.73;;;9.40;92.30;;;;;;5061318;28;20047;-74
2022/12/20 00:28:54;;;;;;;12.65;7.72;;;9.40;92.50;;;;;;5053210;28;20045;-75
2022/12/20 00:31:21;;;;;;;11.15;6.72;;;9.40;92.30;;;;;;5053061;28;20073;-75
2022/12/20 00:33:49;;;;;;;10.55;7.75;;;9.50;92.30;;;;;;5020152;28;20120;-76
2022/12/20 00:36:17;;;;;;;13.93;8.57;;;9.50;92.10;;;;;;5052966;28;20032;-74
2022/12/20 00:38:50;;;;;;;18.45;10.98;;;9.50;92.20;;;;;;5052728;28;20349;-76
2022/12/20 00:41:26;;;;;;;20.45;12.80;;;9.50;92.20;;;;;;5052981;28;20040;-75
2022/12/20 00:43:52;;;;;;;16.25;10.52;;;9.50;92.10;;;;;;5052893;28;20111;-74
2022/12/20 00:46:19;;;;;;;11.32;7.15;;;9.50;92.10;;;;;;5052884;28;20044;-74
2022/12/20 00:48:46;;;;;;;16.83;9.75;;;9.50;92.30;;;;;;5053037;28;20405;-74
2022/12/20 00:51:15;;;;;;;21.27;13.38;;;9.40;92.10;;;;;;5052956;28;20076;-75
2022/12/20 00:53:41;;;;;;;32.65;17.17;;;9.40;92.10;;;;;;5053049;28;20051;-74
2022/12/20 00:56:08;;;;;;;21.25;13.07;;;9.30;92.00;;;;;;5052587;28;20509;-76
2022/12/20 00:58:36;;;;;;;23.17;15.30;;;9.30;92.00;;;;;;5052534;28;20504;-74
2022/12/20 01:01:03;;;;;;;22.15;11.73;;;9.30;92.10;;;;;;5052506;28;20497;-73
2022/12/20 01:03:28;;;;;;;33.20;19.73;;;9.30;91.90;;;;;;5052489;28;20127;-77
2022/12/20 01:05:57;;;;;;;37.78;20.42;;;9.30;92.10;;;;;;5052523;28;20124;-74
2022/12/20 01:08:24;;;;;;;19.70;11.32;;;9.30;92.20;;;;;;5052242;28;20056;-74
2022/12/20 01:11:06;;;;;;;27.45;14.68;;;9.20;92.00;;;;;;5052705;28;20578;-75
2022/12/20 01:13:36;;;;;;;16.00;9.85;;;9.30;92.00;;;;;;5052453;28;20053;-75
2022/12/20 01:16:20;;;;;;;16.77;10.27;;;9.20;92.10;;;;;;5052419;28;20087;-74
2022/12/20 01:18:47;;;;;;;21.00;12.45;;;9.20;92.00;;;;;;5052332;28;20033;-74
2022/12/20 01:21:15;;;;;;;19.50;11.35;;;9.20;91.90;;;;;;5052286;28;20037;-74
2022/12/20 01:23:41;;;;;;;48.17;18.98;;;9.30;92.10;;;;;;5035538;28;20091;-74
2022/12/20 01:26:11;;;;;;;28.98;14.27;;;9.20;91.90;;;;;;5052487;28;20127;-74
2022/12/20 01:28:39;;;;;;;17.38;9.25;;;9.20;91.60;;;;;;5052125;28;20045;-74
2022/12/20 01:31:07;;;;;;;12.57;7.00;;;9.20;91.60;;;;;;5051935;28;20044;-77
2022/12/20 01:33:33;;;;;;;21.13;12.32;;;9.20;91.60;;;;;;5052233;28;20055;-75
2022/12/20 01:36:05;;;;;;;16.83;11.57;;;9.30;91.80;;;;;;5051880;28;20040;-73
2022/12/20 01:38:31;;;;;;;52.00;27.92;;;9.20;91.60;;;;;;5051872;28;20051;-74
2022/12/20 01:40:58;;;;;;;23.08;10.88;;;9.20;91.70;;;;;;5051809;28;20076;-77
2022/12/20 01:43:25;;;;;;;50.72;25.42;;;9.30;91.40;;;;;;5051878;28;20033;-74
2022/12/20 01:45:51;;;;;;;20.10;15.00;;;9.30;91.10;;;;;;5051876;28;20044;-73
2022/12/20 01:48:25;;;;;;;14.95;10.27;;;9.30;91.40;;;;;;5051788;28;20040;-75
2022/12/20 01:50:52;;;;;;;11.67;10.47;;;9.20;91.30;;;;;;5051164;28;20045;-74
2022/12/20 01:53:21;;;;;;;11.30;8.57;;;9.30;91.40;;;;;;5051839;28;20041;-77
2022/12/20 01:55:47;;;;;;;9.18;8.23;;;9.30;91.30;;;;;;5051605;28;20040;-74
2022/12/20 01:58:15;;;;;;;6.30;5.10;;;9.30;91.30;;;;;;5051683;28;20041;-73
2022/12/20 02:00:41;;;;;;;10.13;6.90;;;9.40;91.10;;;;;;5051655;28;20103;-74
2022/12/20 02:03:10;;;;;;;5.20;4.57;;;9.40;91.10;;;;;;5035026;28;20076;-74
2022/12/20 02:05:39;;;;;;;8.25;5.45;;;9.50;90.90;;;;;;5051528;28;20045;-74
2022/12/20 02:08:06;;;;;;;7.93;5.10;;;9.50;91.10;;;;;;5034800;28;20504;-75
2022/12/20 02:10:52;;;;;;;7.50;4.95;;;9.50;90.90;;;;;;5051554;28;20072;-75
2022/12/20 02:13:40;;;;;;;9.35;5.03;;;9.50;91.00;;;;;;5051483;28;20040;-75
2022/12/20 02:16:06;;;;;;;8.90;5.60;;;9.60;90.80;;;;;;5041271;28;20114;-75
2022/12/20 02:18:44;;;;;;;9.13;6.03;;;9.50;90.90;;;;;;5034938;28;20099;-75
2022/12/20 02:21:48;;;;;;;5.82;4.70;;;9.50;91.20;;;;;;5051708;28;20404;-74
2022/12/20 02:24:32;;;;;;;7.20;4.72;;;9.50;91.00;;;;;;5053419;28;20052;-72
2022/12/20 02:27:10;;;;;;;5.32;4.30;;;9.50;91.20;;;;;;5071467;28;20504;-73
2022/12/20 02:29:57;;;;;;;7.03;4.75;;;9.50;91.10;;;;;;5071440;28;20044;-74
2022/12/20 02:32:35;;;;;;;7.68;4.90;;;9.60;91.30;;;;;;5071268;28;20102;-78
2022/12/20 02:35:01;;;;;;;7.95;4.82;;;9.50;91.60;;;;;;5071404;28;20526;-75
2022/12/20 02:37:27;;;;;;;8.80;5.75;;;9.40;92.20;;;;;;5071301;28;20059;-74
2022/12/20 02:39:53;;;;;;;7.35;4.53;;;9.40;92.20;;;;;;5054891;28;20493;-76
2022/12/20 02:42:22;;;;;;;7.40;4.90;;;9.40;92.50;;;;;;5071178;28;20437;-77
2022/12/20 02:45:14;;;;;;;7.40;4.68;;;9.30;93.00;;;;;;5071226;28;20037;-74
2022/12/20 02:47:55;;;;;;;8.45;4.55;;;9.30;93.20;;;;;;5071323;28;20082;-73
2022/12/20 02:50:31;;;;;;;5.15;3.83;;;9.20;92.90;;;;;;5071591;28;20040;-77
2022/12/20 02:52:58;;;;;;;8.32;5.10;;;9.20;93.30;;;;;;5071420;28;20036;-76
2022/12/20 02:55:36;;;;;;;6.20;4.82;;;9.10;93.60;;;;;;5070961;28;20123;-77
2022/12/20 02:58:09;;;;;;;6.55;5.15;;;9.10;93.30;;;;;;5054690;28;20126;-77
2022/12/20 03:00:41;;;;;;;7.40;5.10;;;9.00;94.00;;;;;;5071157;28;20043;-77
2022/12/20 03:03:23;;;;;;;7.00;4.85;;;9.00;94.20;;;;;;5073569;28;20067;-76
2022/12/20 03:05:55;;;;;;;8.40;5.57;;;9.00;94.40;;;;;;5074767;28;20136;-77
2022/12/20 03:08:22;;;;;;;7.13;5.32;;;9.00;94.80;;;;;;5074495;28;20068;-74
2022/12/20 03:10:49;;;;;;;6.90;4.80;;;9.00;94.90;;;;;;5058006;28;20049;-78
2022/12/20 03:13:16;;;;;;;6.20;4.43;;;9.00;94.40;;;;;;5074557;28;20143;-74
2022/12/20 03:15:42;;;;;;;7.10;5.32;;;9.00;94.60;;;;;;5074486;28;20044;-75
2022/12/20 03:18:07;;;;;;;6.45;4.63;;;9.00;94.70;;;;;;5074533;28;20039;-78
2022/12/20 03:20:33;;;;;;;7.78;5.75;;;9.00;94.90;;;;;;5057760;28;20115;-80
2022/12/20 03:22:59;;;;;;;5.43;4.25;;;9.00;94.80;;;;;;5041074;28;20118;-75
2022/12/20 03:25:25;;;;;;;7.32;5.22;;;9.00;94.70;;;;;;5074729;28;20439;-76
2022/12/20 03:27:51;;;;;;;5.93;4.70;;;9.00;94.90;;;;;;5074359;28;20480;-76
2022/12/20 03:30:17;;;;;;;6.25;4.70;;;9.00;94.90;;;;;;5074380;28;20087;-74
2022/12/20 03:32:42;;;;;;;7.75;5.05;;;9.00;94.90;;;;;;5057596;28;20093;-74
2022/12/20 03:35:08;;;;;;;5.95;4.05;;;9.00;95.10;;;;;;5040900;28;20045;-75
2022/12/20 03:37:34;;;;;;;5.78;4.57;;;9.00;95.20;;;;;;5074121;28;20123;-74
2022/12/20 03:40:00;;;;;;;6.07;4.45;;;9.00;95.00;;;;;;5074125;28;20033;-75
2022/12/20 03:42:26;;;;;;;8.00;4.93;;;9.00;95.60;;;;;;5057398;28;20044;-77
2022/12/20 03:44:51;;;;;;;7.50;4.07;;;9.00;95.70;;;;;;5057740;28;20511;-75
2022/12/20 03:47:17;;;;;;;7.00;4.50;;;8.90;95.60;;;;;;5074004;28;20044;-76
2022/12/20 03:49:43;;;;;;;6.07;4.30;;;9.00;95.60;;;;;;5073898;28;20188;-74
2022/12/20 03:52:11;;;;;;;7.60;4.63;;;9.00;95.70;;;;;;5073832;28;20143;-76
2022/12/20 03:54:37;;;;;;;6.88;4.57;;;9.00;95.30;;;;;;5057481;28;20036;-74
2022/12/20 03:57:02;;;;;;;7.45;4.57;;;9.00;96.00;;;;;;5073769;28;20555;-77
2022/12/20 03:59:28;;;;;;;9.43;5.70;;;9.00;95.70;;;;;;5057340;28;20052;-76
2022/12/20 04:01:54;;;;;;;6.65;5.10;;;9.00;95.80;;;;;;5056986;28;20036;-74
2022/12/20 04:04:19;;;;;;;8.95;4.65;;;9.00;95.80;;;;;;5073972;28;20068;-76
2022/12/20 04:06:45;;;;;;;5.85;4.57;;;9.00;95.90;;;;;;5074005;28;20040;-77
2022/12/20 04:09:11;;;;;;;9.27;5.00;;;9.00;95.60;;;;;;5040292;28;20086;-76
2022/12/20 04:11:38;;;;;;;8.02;5.45;;;9.10;96.00;;;;;;5073767;28;20040;-75
2022/12/20 04:14:04;;;;;;;7.28;4.93;;;9.00;96.10;;;;;;5056657;28;20514;-74
2022/12/20 04:16:30;;;;;;;8.63;5.60;;;9.10;95.90;;;;;;5056764;28;20503;-76
2022/12/20 04:18:56;;;;;;;7.22;4.63;;;9.10;95.90;;;;;;5073676;28;20385;-74
2022/12/20 04:21:28;;;;;;;7.15;4.75;;;9.10;96.20;;;;;;5073299;28;20032;-76
2022/12/20 04:23:54;;;;;;;8.02;5.10;;;9.10;96.00;;;;;;5073339;28;20492;-76
2022/12/20 04:26:20;;;;;;;8.90;5.07;;;9.10;96.00;;;;;;5056669;28;20044;-75
2022/12/20 04:28:46;;;;;;;8.50;5.55;;;9.10;95.80;;;;;;5073215;28;20133;-77
2022/12/20 04:31:12;;;;;;;7.72;4.97;;;9.10;96.00;;;;;;5056633;28;20084;-75
2022/12/20 04:33:38;;;;;;;8.18;4.88;;;9.10;95.70;;;;;;5073097;28;20443;-76
2022/12/20 04:36:04;;;;;;;8.13;4.95;;;9.10;96.00;;;;;;5072995;28;20047;-76
2022/12/20 04:38:30;;;;;;;10.73;4.97;;;9.10;95.90;;;;;;5073038;28;20123;-74
2022/12/20 04:40:55;;;;;;;7.72;5.47;;;9.10;95.90;;;;;;5072965;28;20306;-75
2022/12/20 04:43:22;;;;;;;9.57;5.50;;;9.20;95.80;;;;;;5072859;28;20103;-75
2022/12/20 04:45:50;;;;;;;7.30;5.30;;;9.10;95.80;;;;;;5072811;28;20488;-76
2022/12/20 04:48:16;;;;;;;6.22;5.00;;;9.10;96.00;;;;;;5056139;28;20051;-74
2022/12/20 04:50:42;;;;;;;7.07;5.32;;;9.10;95.80;;;;;;5039593;28;20040;-75
2022/12/20 04:55:54;;;;;;;8.77;5.80;;;9.10;95.90;;;;;;5072646;28;20049;-74
2022/12/20 04:58:20;;;;;;;12.05;5.32;;;9.10;96.00;;;;;;5055944;28;20040;-74
2022/12/20 05:00:45;;;;;;;8.32;5.32;;;9.10;95.90;;;;;;5055943;28;20052;-74
2022/12/20 05:03:11;;;;;;;7.88;5.00;;;9.10;96.00;;;;;;5072495;28;20036;-74
2022/12/20 05:05:37;;;;;;;8.70;5.55;;;9.10;95.90;;;;;;5072460;28;20037;-74
2022/12/20 05:08:03;;;;;;;6.85;4.55;;;9.10;95.90;;;;;;5072819;28;20483;-75
2022/12/20 05:10:29;;;;;;;10.02;4.63;;;9.20;95.80;;;;;;5055558;28;20132;-75
2022/12/20 05:12:55;;;;;;;7.32;5.07;;;9.30;95.80;;;;;;5072528;28;20205;-73
2022/12/20 05:15:20;;;;;;;8.25;4.97;;;9.20;95.80;;;;;;5072289;28;20536;-74
2022/12/20 05:17:46;;;;;;;7.45;4.95;;;9.30;95.70;;;;;;5055579;28;20044;-76
2022/12/20 05:20:12;;;;;;;6.50;4.72;;;9.20;95.60;;;;;;5072495;28;20128;-76
2022/12/20 05:28:07;;;;;;;7.75;4.28;;;9.30;95.50;;;;;;5058098;28;20177;-75
2022/12/20 05:30:32;;;;;;;5.60;4.28;;;9.40;95.50;;;;;;5072330;28;20098;-76
2022/12/20 05:32:58;;;;;;;5.80;4.57;;;9.40;95.40;;;;;;5072007;28;20105;-74
2022/12/20 05:35:24;;;;;;;5.85;4.75;;;9.40;95.30;;;;;;5071962;28;20063;-73
2022/12/20 05:37:49;;;;;;;8.65;4.93;;;9.40;95.20;;;;;;5071828;28;20044;-72
2022/12/20 05:40:16;;;;;;;5.50;4.75;;;9.40;95.20;;;;;;5055230;28;20045;-73
2022/12/20 05:42:42;;;;;;;9.43;5.05;;;9.40;95.20;;;;;;5071799;28;20111;-73
2022/12/20 05:45:08;;;;;;;7.90;5.00;;;9.40;95.10;;;;;;5071890;28;20056;-73
2022/12/20 05:47:34;;;;;;;5.72;5.05;;;9.40;95.00;;;;;;5072076;28;20076;-76
2022/12/20 05:50:00;;;;;;;7.65;4.80;;;9.50;95.10;;;;;;5071760;28;20505;-75
2022/12/20 05:52:25;;;;;;;7.38;4.18;;;9.40;95.00;;;;;;5071686;28;20036;-77
2022/12/20 05:54:51;;;;;;;5.85;4.03;;;9.40;95.00;;;;;;5055078;28;20079;-74
2022/12/20 05:57:17;;;;;;;6.07;4.47;;;9.50;95.10;;;;;;5068242;28;20044;-75
2022/12/20 05:59:43;;;;;;;6.13;4.35;;;9.50;95.00;;;;;;5052349;28;20036;-74
2022/12/20 06:02:09;;;;;;;6.35;4.15;;;9.50;94.90;;;;;;5046256;28;20131;-74
2022/12/20 06:04:37;;;;;;;7.90;4.68;;;9.50;94.90;;;;;;5060354;28;20025;-77
2022/12/20 06:07:04;;;;;;;7.55;4.95;;;9.50;94.90;;;;;;5061754;28;20041;-74
2022/12/20 06:09:33;;;;;;;6.28;5.07;;;9.50;94.90;;;;;;5061333;28;20563;-75
2022/12/20 06:11:58;;;;;;;6.13;4.75;;;9.50;94.90;;;;;;5056847;28;20075;-73
2022/12/20 06:14:24;;;;;;;9.00;5.00;;;9.50;95.00;;;;;;5051869;28;20052;-73
2022/12/20 06:16:50;;;;;;;6.70;4.70;;;9.50;95.00;;;;;;5051553;28;20489;-76
2022/12/20 06:19:16;;;;;;;8.35;4.88;;;9.50;95.00;;;;;;5051556;28;20468;-74
2022/12/20 06:21:42;;;;;;;7.43;4.90;;;9.50;95.00;;;;;;5051349;28;20048;-74
2022/12/20 06:24:07;;;;;;;5.90;4.13;;;9.50;95.10;;;;;;5051473;28;20045;-75
2022/12/20 06:26:36;;;;;;;6.40;5.03;;;9.60;95.10;;;;;;5034858;28;20378;-75
2022/12/20 06:29:07;;;;;;;5.45;4.88;;;9.60;95.30;;;;;;5051368;28;20563;-74
2022/12/20 06:31:33;;;;;;;6.03;5.07;;;9.70;95.10;;;;;;5051561;28;20053;-75
2022/12/20 06:33:59;;;;;;;7.53;4.97;;;9.70;95.20;;;;;;5035036;28;20486;-74
2022/12/20 06:36:25;;;;;;;8.70;6.07;;;9.70;95.30;;;;;;5051369;28;20119;-73
2022/12/20 06:38:51;;;;;;;7.10;4.85;;;9.70;95.40;;;;;;5055578;28;20033;-74
2022/12/20 06:41:17;;;;;;;8.90;6.43;;;9.60;95.50;;;;;;5022183;28;20051;-75
2022/12/20 06:43:43;;;;;;;7.15;5.15;;;9.70;95.30;;;;;;5055513;28;20037;-74
2022/12/20 06:46:08;;;;;;;6.30;4.85;;;9.60;95.70;;;;;;5038651;28;20459;-76
2022/12/20 06:48:34;;;;;;;7.57;5.40;;;9.60;95.70;;;;;;5055137;28;20076;-75
2022/12/20 06:51:00;;;;;;;7.75;5.88;;;9.60;96.00;;;;;;5054952;28;20080;-76
2022/12/20 06:53:26;;;;;;;6.68;5.35;;;9.70;96.00;;;;;;5038390;28;20044;-77
2022/12/20 06:55:51;;;;;;;7.93;5.72;;;9.60;96.30;;;;;;5038533;28;20045;-76
2022/12/20 06:58:18;;;;;;;9.48;6.30;;;9.60;95.90;;;;;;5038652;28;20493;-75
2022/12/20 07:00:44;;;;;;;7.03;5.88;;;9.60;96.30;;;;;;5038612;28;20420;-76
2022/12/20 07:03:09;;;;;;;8.57;6.55;;;9.60;96.60;;;;;;5038403;28;20124;-76
2022/12/20 07:05:35;;;;;;;8.73;6.53;;;9.60;96.80;;;;;;5038241;28;20128;-74
2022/12/20 07:08:03;;;;;;;9.00;6.78;;;9.60;96.70;;;;;;5038185;28;20433;-76
2022/12/20 07:10:29;;;;;;;10.10;6.85;;;9.50;96.80;;;;;;5054610;28;20091;-75
2022/12/20 07:12:55;;;;;;;8.93;6.72;;;9.50;97.10;;;;;;5054606;28;20076;-75
2022/12/20 07:15:21;;;;;;;8.52;6.68;;;9.50;96.80;;;;;;5054633;28;20075;-75
2022/12/20 07:17:47;;;;;;;8.35;6.78;;;9.50;97.10;;;;;;5054593;28;20052;-73
2022/12/20 07:20:13;;;;;;;10.55;6.10;;;9.50;97.10;;;;;;5054443;28;20405;-75
2022/12/20 07:22:38;;;;;;;10.40;6.47;;;9.50;97.20;;;;;;5054416;28;20048;-74
2022/12/20 07:25:04;;;;;;;7.75;6.25;;;9.50;97.10;;;;;;5037837;28;20041;-75
2022/12/20 07:27:30;;;;;;;8.32;6.55;;;9.50;97.00;;;;;;5054382;28;20041;-75
2022/12/20 07:29:55;;;;;;;11.23;7.18;;;9.50;97.30;;;;;;5054350;28;20053;-75
2022/12/20 07:32:21;;;;;;;9.15;6.18;;;9.50;97.40;;;;;;5054222;28;20043;-74
2022/12/20 07:34:47;;;;;;;7.65;5.95;;;9.50;97.30;;;;;;5054254;28;20045;-75
2022/12/20 07:37:12;;;;;;;8.63;6.15;;;9.50;97.20;;;;;;5040604;28;20039;-75
2022/12/20 07:39:38;;;;;;;8.90;6.07;;;9.50;97.20;;;;;;5072486;28;20067;-79
2022/12/20 07:42:04;;;;;;;9.00;5.90;;;9.50;97.20;;;;;;5072768;28;20083;-77
2022/12/20 07:44:29;;;;;;;7.88;5.93;;;9.50;97.40;;;;;;5072524;28;20040;-75
2022/12/20 07:46:55;;;;;;;12.52;6.55;;;9.50;97.30;;;;;;5055129;28;20044;-75
2022/12/20 07:49:21;;;;;;;13.23;7.55;;;9.50;97.30;;;;;;5071047;28;20040;-75
2022/12/20 07:51:54;;;;;;;9.43;6.32;;;9.50;97.30;;;;;;5022837;28;20040;-74
2022/12/20 07:54:46;;;;;;;10.73;6.28;;;9.60;96.90;;;;;;5055749;28;20494;-75
2022/12/20 07:57:20;;;;;;;9.43;6.35;;;9.60;97.00;;;;;;5052775;28;20480;-75
2022/12/20 07:59:51;;;;;;;8.25;5.05;;;9.50;97.00;;;;;;5071923;28;20111;-74
2022/12/20 08:02:22;;;;;;;7.43;5.30;;;9.60;97.00;;;;;;5072070;28;20041;-76
2022/12/20 08:04:49;;;;;;;7.70;5.43;;;9.70;96.80;;;;;;5071799;28;20396;-74
2022/12/20 08:07:16;;;;;;;7.65;5.95;;;9.70;96.70;;;;;;5035514;28;20401;-77
2022/12/20 08:09:43;;;;;;;7.32;5.15;;;9.70;96.60;;;;;;5071536;28;20060;-74
2022/12/20 08:12:10;;;;;;;7.18;5.03;;;9.60;96.50;;;;;;5071453;28;20048;-75
2022/12/20 08:14:36;;;;;;;8.90;5.55;;;9.70;96.50;;;;;;5071933;28;20064;-75
2022/12/20 08:17:02;;;;;;;7.80;5.40;;;9.70;96.40;;;;;;5070575;28;20386;-75
2022/12/20 08:19:28;;;;;;;8.57;5.75;;;9.80;96.30;;;;;;5071580;28;20200;-74
2022/12/20 08:21:54;;;;;;;10.05;6.68;;;9.80;96.10;;;;;;5071586;28;20040;-74
2022/12/20 08:24:19;;;;;;;7.47;6.03;;;9.80;96.00;;;;;;5054917;28;20044;-75
2022/12/20 08:26:45;;;;;;;7.32;4.97;;;9.80;95.90;;;;;;5053685;28;20432;-74
2022/12/20 08:29:11;;;;;;;7.18;5.50;;;9.90;95.90;;;;;;5051682;28;20107;-75
2022/12/20 08:31:43;;;;;;;6.00;4.53;;;9.90;95.70;;;;;;5054878;28;20045;-76
2022/12/20 08:34:10;;;;;;;9.30;5.18;;;9.80;95.50;;;;;;5055510;28;20432;-74
2022/12/20 08:36:35;;;;;;;8.23;4.45;;;9.90;95.40;;;;;;5070211;28;20048;-74
2022/12/20 08:39:03;;;;;;;9.55;5.20;;;9.90;95.40;;;;;;5071037;28;20032;-75
2022/12/20 08:41:29;;;;;;;6.43;4.15;;;9.90;95.30;;;;;;5066922;28;20040;-74
2022/12/20 08:43:54;;;;;;;7.32;4.88;;;10.00;95.10;;;;;;5054649;28;20389;-74
2022/12/20 08:46:20;;;;;;;6.22;3.83;;;10.00;94.70;;;;;;5056133;28;20142;-74
2022/12/20 08:48:45;;;;;;;8.05;5.25;;;10.00;94.80;;;;;;5072583;28;20393;-74
2022/12/20 08:51:11;;;;;;;5.78;4.05;;;10.00;94.70;;;;;;5072671;28;20036;-74
2022/12/20 08:53:37;;;;;;;9.85;4.97;;;10.00;94.40;;;;;;5039532;28;20044;-75
2022/12/20 08:56:12;;;;;;;7.78;4.28;;;10.00;94.40;;;;;;5072846;28;20049;-73
2022/12/20 08:58:39;;;;;;;4.97;4.20;;;10.00;94.50;;;;;;5072939;28;20118;-74
2022/12/20 09:01:07;;;;;;;6.88;4.28;;;10.00;94.40;;;;;;5072619;28;20139;-74
2022/12/20 09:03:34;;;;;;;6.07;4.10;;;10.00;94.10;;;;;;5072524;28;20047;-73
2022/12/20 09:06:05;;;;;;;5.97;4.65;;;10.10;93.80;;;;;;5072504;28;20047;-76
2022/12/20 09:08:32;;;;;;;5.45;3.95;;;10.10;93.70;;;;;;5072493;28;20131;-74
2022/12/20 09:11:08;;;;;;;7.97;4.53;;;10.10;93.40;;;;;;5055738;28;20079;-74
2022/12/20 09:13:34;;;;;;;7.15;3.30;;;10.10;93.40;;;;;;5072389;28;20041;-74
2022/12/20 09:16:05;;;;;;;7.00;4.15;;;10.20;93.90;;;;;;5072503;28;20443;-74
2022/12/20 09:18:32;;;;;;;7.07;4.15;;;10.10;93.20;;;;;;5055920;28;20041;-75
2022/12/20 09:21:02;;;;;;;7.95;4.70;;;10.20;92.90;;;;;;5072315;28;20040;-75
2022/12/20 09:23:29;;;;;;;7.13;3.83;;;10.20;93.20;;;;;;5072439;28;20114;-76
2022/12/20 09:26:00;;;;;;;4.80;3.45;;;10.20;92.90;;;;;;5072411;28;20554;-74
2022/12/20 09:28:25;;;;;;;5.95;3.45;;;10.10;92.80;;;;;;5072163;28;20131;-73
2022/12/20 09:30:51;;;;;;;6.65;3.83;;;10.10;92.70;;;;;;5055448;28;20072;-75
2022/12/20 09:33:16;;;;;;;6.07;3.90;;;10.10;93.00;;;;;;5072212;28;20064;-74
2022/12/20 09:35:46;;;;;;;6.63;4.38;;;10.10;92.90;;;;;;5071852;28;20033;-74
2022/12/20 09:38:12;;;;;;;5.88;4.00;;;10.20;92.90;;;;;;5055632;28;20428;-73
2022/12/20 09:40:42;;;;;;;6.07;3.35;;;10.20;92.70;;;;;;5072210;28;20174;-75
2022/12/20 09:43:09;;;;;;;5.35;3.10;;;10.20;92.70;;;;;;5055963;28;20044;-74
2022/12/20 09:45:36;;;;;;;7.00;3.70;;;10.20;92.70;;;;;;5071897;28;20041;-74
2022/12/20 09:48:04;;;;;;;7.38;4.45;;;10.30;92.70;;;;;;5072093;28;20075;-73
2022/12/20 09:50:51;;;;;;;7.30;3.80;;;10.30;92.80;;;;;;5071803;28;20045;-74
2022/12/20 09:53:44;;;;;;;6.13;4.45;;;10.30;93.10;;;;;;5071787;28;20094;-75
2022/12/20 09:56:14;;;;;;;8.35;3.88;;;10.30;93.20;;;;;;5055035;28;20083;-74
2022/12/20 09:59:01;;;;;;;9.38;5.70;;;10.30;93.20;;;;;;5072013;28;20040;-74
2022/12/20 10:01:30;;;;;;;6.32;4.65;;;10.30;93.30;;;;;;5071587;28;20036;-73
2022/12/20 10:03:58;;;;;;;8.57;4.10;;;10.30;93.40;;;;;;5071898;28;20452;-74
2022/12/20 10:06:51;;;;;;;9.80;4.07;;;10.40;93.40;;;;;;5071631;28;20047;-77
2022/12/20 10:09:28;;;;;;;7.15;3.55;;;10.40;93.30;;;;;;5071669;28;20060;-74
2022/12/20 10:12:08;;;;;;;8.13;4.03;;;10.40;93.30;;;;;;5054310;28;20040;-75
2022/12/20 10:14:50;;;;;;;5.57;3.13;;;10.40;93.30;;;;;;5072055;28;20055;-75
2022/12/20 10:17:30;;;;;;;7.03;3.53;;;10.40;93.30;;;;;;5071529;28;20049;-75
2022/12/20 10:20:20;;;;;;;5.30;3.20;;;10.40;93.40;;;;;;5071661;28;20032;-75
2022/12/20 10:22:59;;;;;;;6.32;3.80;;;10.40;93.40;;;;;;5070037;28;20119;-77
2022/12/20 10:25:33;;;;;;;7.68;4.00;;;10.30;93.40;;;;;;5071149;28;20124;-75
2022/12/20 10:28:02;;;;;;;5.93;3.20;;;10.40;93.30;;;;;;5071523;28;20053;-74
2022/12/20 10:30:34;;;;;;;7.65;3.50;;;10.40;93.30;;;;;;5071447;28;20055;-75
2022/12/20 10:33:00;;;;;;;8.13;4.00;;;10.40;93.20;;;;;;5071391;28;20075;-77
2022/12/20 10:35:47;;;;;;;7.95;3.45;;;10.40;93.30;;;;;;5071400;28;20036;-77
2022/12/20 10:38:16;;;;;;;6.35;3.35;;;10.40;93.20;;;;;;5071244;28;20048;-76
2022/12/20 10:41:01;;;;;;;4.80;2.90;;;10.40;93.30;;;;;;5071604;28;20362;-76
2022/12/20 10:43:36;;;;;;;4.97;3.28;;;10.50;93.20;;;;;;5071408;28;20043;-77
2022/12/20 10:46:05;;;;;;;8.13;3.53;;;10.50;93.30;;;;;;5071567;28;20071;-75
2022/12/20 10:48:40;;;;;;;5.85;3.05;;;10.50;93.30;;;;;;5071206;28;20036;-75
2022/12/20 10:51:08;;;;;;;;;;;10.50;93.30;;;;;;5071852;28;20551;-75
2022/12/20 10:53:36;;;;;;;5.13;3.00;;;10.50;93.30;;;;;;5071477;28;19917;-75
2022/12/20 10:56:22;;;;;;;6.95;3.22;;;10.50;93.40;;;;;;5071241;28;20048;-75
2022/12/20 10:58:54;;;;;;;7.47;3.97;;;10.50;93.40;;;;;;5071221;28;20037;-77
2022/12/20 11:01:22;;;;;;;4.75;3.65;;;10.50;93.40;;;;;;5071271;28;20040;-75
2022/12/20 11:03:58;;;;;;;8.60;4.20;;;10.50;93.40;;;;;;5071065;28;20039;-75
2022/12/20 11:06:28;;;;;;;5.18;3.67;;;10.50;93.50;;;;;;5054513;28;20103;-75
2022/12/20 11:09:11;;;;;;;7.72;4.22;;;10.50;93.70;;;;;;5070883;28;20063;-75
2022/12/20 11:11:36;;;;;;;13.18;4.25;;;10.50;93.70;;;;;;5056698;28;20052;-75
2022/12/20 11:14:13;;;;;;;6.75;4.20;;;10.50;93.70;;;;;;5071035;28;20127;-76
2022/12/20 11:16:39;;;;;;;9.10;5.00;;;10.50;93.90;;;;;;5070930;28;20047;-74
2022/12/20 11:19:20;;;;;;;8.75;4.95;;;10.40;94.10;;;;;;5071017;28;20044;-76
2022/12/20 11:21:58;;;;;;;4.00;3.55;;;10.40;94.10;;;;;;5071093;28;20040;-74
2022/12/20 11:24:29;;;;;;;12.07;5.00;;;10.40;93.90;;;;;;5072596;28;20382;-75
2022/12/20 11:27:14;;;;;;;8.10;4.90;;;10.30;94.00;;;;;;5057815;28;20048;-77
2022/12/20 11:29:46;;;;;;;6.25;4.25;;;10.30;94.10;;;;;;5074362;28;20131;-75
2022/12/20 11:32:34;;;;;;;6.13;4.40;;;10.30;94.20;;;;;;5074366;28;20048;-75
2022/12/20 11:35:14;;;;;;;7.13;4.30;;;10.30;94.30;;;;;;5074472;28;20130;-75
2022/12/20 11:38:11;;;;;;;10.02;4.15;;;10.20;94.30;;;;;;5074239;28;20070;-76
2022/12/20 11:40:44;;;;;;;6.30;4.40;;;10.10;94.80;;;;;;5074396;28;20037;-77
2022/12/20 11:43:36;;;;;;;5.45;4.68;;;10.10;94.90;;;;;;5074379;28;20157;-76
2022/12/20 11:46:33;;;;;;;7.25;4.57;;;10.10;94.60;;;;;;5054512;28;20056;-76
2022/12/20 11:49:30;;;;;;;7.57;4.72;;;10.10;95.00;;;;;;5074122;28;20120;-75
2022/12/20 11:52:23;;;;;;;6.93;5.15;;;10.00;95.10;;;;;;5073980;28;20044;-76
2022/12/20 11:55:01;;;;;;;13.43;9.45;;;9.90;95.20;;;;;;5073906;28;20041;-75
2022/12/20 11:57:35;;;;;;;8.52;6.10;;;9.90;95.40;;;;;;5073954;28;20119;-74
2022/12/20 12:00:02;;;;;;;9.52;7.22;;;9.90;95.30;;;;;;5073898;28;20072;-74
2022/12/20 12:02:46;;;;;;;11.13;8.75;;;9.80;95.60;;;;;;5073763;28;20036;-76
2022/12/20 12:05:52;;;;;;;10.93;8.17;;;9.70;95.90;;;;;;5073802;28;20546;-76
2022/12/20 12:08:30;;;;;;;11.32;6.78;;;9.70;95.80;;;;;;5062259;28;20075;-76
2022/12/20 12:11:01;;;;;;;11.32;7.78;;;9.70;96.30;;;;;;5073723;28;20043;-76
2022/12/20 12:13:30;;;;;;;12.88;7.57;;;9.60;96.80;;;;;;5073682;28;20070;-76
2022/12/20 12:16:11;;;;;;;14.50;11.38;;;9.60;96.80;;;;;;5073507;28;20036;-77
2022/12/20 12:18:40;;;;;;;22.67;16.38;;;9.60;96.90;;;;;;5056923;28;20079;-75
2022/12/20 12:21:22;;;;;;;10.35;7.57;;;9.60;97.00;;;;;;5073632;28;20119;-75
2022/12/20 12:24:03;;;;;;;13.82;9.80;;;9.60;97.20;;;;;;5073392;28;20045;-75
2022/12/20 12:26:35;;;;;;;38.92;23.90;;;9.60;97.00;;;;;;5073598;28;20056;-78
2022/12/20 12:29:15;;;;;;;22.60;13.95;;;9.60;96.70;;;;;;5073593;28;20059;-76
2022/12/20 12:31:44;;;;;;;12.25;8.38;;;9.50;97.00;;;;;;5073423;28;20149;-74
2022/12/20 12:34:27;;;;;;;13.77;7.97;;;9.50;96.90;;;;;;5073050;28;20040;-75
2022/12/20 12:37:18;;;;;;;10.48;8.00;;;9.60;96.80;;;;;;5072967;28;20047;-78
2022/12/20 12:39:51;;;;;;;12.15;8.40;;;9.60;96.60;;;;;;5073086;28;20040;-76
2022/12/20 12:42:22;;;;;;;11.10;8.05;;;9.50;96.90;;;;;;5073260;28;20040;-75
2022/12/20 12:44:58;;;;;;;10.13;7.57;;;9.50;97.00;;;;;;5073022;28;20047;-76
2022/12/20 12:47:38;;;;;;;9.25;7.40;;;9.50;96.90;;;;;;5072919;28;20040;-75
2022/12/20 12:50:13;;;;;;;12.02;8.20;;;9.50;96.80;;;;;;5073133;28;20076;-75
2022/12/20 12:52:44;;;;;;;10.05;8.38;;;9.60;96.80;;;;;;5056403;28;20051;-75
2022/12/20 12:55:38;;;;;;;15.63;12.43;;;9.60;96.70;;;;;;5072784;28;20123;-75
2022/12/20 12:58:21;;;;;;;11.68;8.88;;;9.50;96.90;;;;;;5055908;28;20041;-76
2022/12/20 13:00:48;;;;;;;12.85;9.55;;;9.60;96.80;;;;;;5073149;28;20445;-75
2022/12/20 13:03:15;;;;;;;14.27;10.73;;;9.50;97.20;;;;;;5072840;28;20424;-75
2022/12/20 13:05:41;;;;;;;28.10;21.65;;;9.50;97.00;;;;;;5072551;28;20037;-74
2022/12/20 13:08:17;;;;;;;11.73;8.63;;;9.50;97.00;;;;;;5055876;28;20044;-75
2022/12/20 13:10:43;;;;;;;9.95;8.10;;;9.50;97.00;;;;;;5072274;28;20127;-76
2022/12/20 13:13:19;;;;;;;11.65;9.00;;;9.50;97.30;;;;;;5055723;28;20532;-77
2022/12/20 13:15:47;;;;;;;10.90;9.65;;;9.50;97.40;;;;;;5072281;28;20082;-75